createdAt,value
2023-02-27T00:00:01.031Z,-6.3
2023-02-27T00:04:01.083Z,-6.4
2023-02-27T00:08:00.957Z,-6.4
2023-02-27T00:09:01.084Z,-6.3
2023-02-27T00:12:00.966Z,-6.4
2023-02-27T00:14:00.964Z,-6.3
2023-02-27T00:16:01.001Z,-6.4
2023-02-27T00:17:00.946Z,-6.5
2023-02-27T00:18:00.993Z,-6.6
2023-02-27T00:20:00.997Z,-6.6
2023-02-27T00:22:00.945Z,-6.5
2023-02-27T00:23:00.930Z,-6.6
2023-02-27T00:24:00.977Z,-6.7
2023-02-27T00:27:00.954Z,-6.8
2023-02-27T00:28:01.000Z,-6.7
2023-02-27T00:32:01.042Z,-6.9
2023-02-27T00:40:00.971Z,-6.9
2023-02-27T00:42:01.073Z,-6.8
2023-02-27T00:45:01.134Z,-7
2023-02-27T00:47:01.002Z,-6.9
2023-02-27T00:49:00.944Z,-7.1
2023-02-27T00:50:00.987Z,-7
2023-02-27T00:53:00.998Z,-7.3
2023-02-27T00:55:01.023Z,-7.2
2023-02-27T00:57:00.938Z,-7.3
2023-02-27T00:59:00.984Z,-7.2
2023-02-27T01:00:00.981Z,-7.4
2023-02-27T01:01:01.201Z,-7.3
2023-02-27T01:03:01.013Z,-7.3
2023-02-27T01:04:01.168Z,-7.4
2023-02-27T01:07:01.031Z,-7.5
2023-02-27T01:08:01.020Z,-7.4
2023-02-27T01:09:01.019Z,-7.6
2023-02-27T01:10:01.196Z,-7.5
2023-02-27T01:12:01.049Z,-7.6
2023-02-27T01:16:01.135Z,-7.5
2023-02-27T01:18:01.050Z,-7.6
2023-02-27T01:23:01.157Z,-7.7
2023-02-27T01:28:01.024Z,-7.6
2023-02-27T01:31:01.185Z,-7.7
2023-02-27T01:33:01.105Z,-7.8
2023-02-27T01:37:01.185Z,-7.9
2023-02-27T01:40:01.034Z,-7.8
2023-02-27T01:43:01.002Z,-8
2023-02-27T01:46:01.061Z,-7.8
2023-02-27T01:48:00.979Z,-7.8
2023-02-27T01:49:00.980Z,-8
2023-02-27T01:51:01.014Z,-8
2023-02-27T01:53:00.965Z,-8
2023-02-27T01:54:00.982Z,-8.1
2023-02-27T01:56:00.976Z,-8
2023-02-27T01:57:00.961Z,-8.1
2023-02-27T01:58:00.981Z,-7.9
2023-02-27T02:00:01.011Z,-8.1
2023-02-27T02:03:00.991Z,-8
2023-02-27T02:05:00.986Z,-8.1
2023-02-27T02:07:00.931Z,-8.1
2023-02-27T02:08:00.967Z,-8.2
2023-02-27T02:10:00.939Z,-8.3
2023-02-27T02:12:00.959Z,-8.2
2023-02-27T02:13:01.021Z,-8.3
2023-02-27T02:15:01.031Z,-8.5
2023-02-27T02:17:01.034Z,-8.4
2023-02-27T02:19:00.945Z,-8.3
2023-02-27T02:20:01.029Z,-8.4
2023-02-27T02:23:00.988Z,-8.3
2023-02-27T02:25:00.941Z,-8.4
2023-02-27T02:28:00.938Z,-8.5
2023-02-27T02:30:00.994Z,-8.4
2023-02-27T02:32:01.054Z,-8.3
2023-02-27T02:35:01.005Z,-8.3
2023-02-27T02:37:00.987Z,-8.4
2023-02-27T02:39:00.942Z,-8.3
2023-02-27T02:42:00.999Z,-8.5
2023-02-27T02:48:01.045Z,-8.5
2023-02-27T02:52:00.959Z,-8.6
2023-02-27T02:54:01.037Z,-8.5
2023-02-27T02:58:00.958Z,-8.4
2023-02-27T02:59:00.982Z,-8.5
2023-02-27T03:03:00.991Z,-8.6
2023-02-27T03:05:00.938Z,-8.5
2023-02-27T03:06:00.974Z,-8.4
2023-02-27T03:08:00.926Z,-8.7
2023-02-27T03:10:00.967Z,-8.6
2023-02-27T03:14:00.959Z,-8.6
2023-02-27T03:15:01.031Z,-8.7
2023-02-27T03:20:00.977Z,-8.6
2023-02-27T03:21:00.948Z,-8.7
2023-02-27T03:23:00.978Z,-8.9
2023-02-27T03:26:01.071Z,-8.9
2023-02-27T03:28:00.928Z,-8.7
2023-02-27T03:30:00.996Z,-8.8
2023-02-27T03:33:00.941Z,-8.6
2023-02-27T03:34:01.590Z,-8.8
2023-02-27T03:37:00.973Z,-8.7
2023-02-27T03:38:00.999Z,-8.5
2023-02-27T03:40:00.961Z,-8.5
2023-02-27T03:42:00.916Z,-8.3
2023-02-27T03:43:00.994Z,-8.5
2023-02-27T03:44:00.917Z,-8.3
2023-02-27T03:45:00.926Z,-8.4
2023-02-27T03:46:00.992Z,-8.2
2023-02-27T03:50:00.938Z,-8
2023-02-27T03:51:00.969Z,-8.2
2023-02-27T03:53:00.951Z,-8.1
2023-02-27T03:54:00.946Z,-7.9
2023-02-27T03:57:00.959Z,-7.8
2023-02-27T03:59:00.926Z,-7.8
2023-02-27T04:00:00.958Z,-7.7
2023-02-27T04:01:00.979Z,-7.8
2023-02-27T04:04:00.972Z,-7.6
2023-02-27T04:10:01.017Z,-7.5
2023-02-27T04:13:01.002Z,-7.4
2023-02-27T04:16:01.044Z,-7.3
2023-02-27T04:19:01.067Z,-7.2
2023-02-27T04:21:00.945Z,-7.3
2023-02-27T04:22:01.096Z,-7.1
2023-02-27T04:24:00.954Z,-7
2023-02-27T04:26:01.006Z,-6.9
2023-02-27T04:27:00.998Z,-7
2023-02-27T04:28:00.966Z,-6.8
2023-02-27T04:31:01.096Z,-6.8
2023-02-27T04:33:00.926Z,-6.7
2023-02-27T04:34:00.993Z,-6.8
2023-02-27T04:35:00.983Z,-6.7
2023-02-27T04:38:01.004Z,-6.6
2023-02-27T04:41:00.944Z,-6.5
2023-02-27T04:42:00.931Z,-6.4
2023-02-27T04:44:00.960Z,-6.3
2023-02-27T04:46:00.981Z,-6.2
2023-02-27T04:48:00.935Z,-6.1
2023-02-27T04:50:01.015Z,-6.2
2023-02-27T04:51:01.018Z,-6.1
2023-02-27T04:54:00.982Z,-6.1
2023-02-27T04:56:00.999Z,-6
2023-02-27T04:59:00.987Z,-5.9
2023-02-27T05:00:01.070Z,-6
2023-02-27T05:02:01.059Z,-6
2023-02-27T05:04:00.957Z,-5.9
2023-02-27T05:11:00.941Z,-5.6
2023-02-27T05:12:00.934Z,-5.7
2023-02-27T05:14:00.971Z,-5.7
2023-02-27T05:16:01.015Z,-5.5
2023-02-27T05:19:00.985Z,-5.7
2023-02-27T05:24:00.976Z,-5.5
2023-02-27T05:27:00.940Z,-5.4
2023-02-27T05:33:00.931Z,-5.2
2023-02-27T05:34:00.988Z,-5.3
2023-02-27T05:37:00.912Z,-5.2
2023-02-27T05:38:00.971Z,-5.1
2023-02-27T05:45:00.926Z,-5.3
2023-02-27T05:46:00.947Z,-5.2
2023-02-27T05:47:00.926Z,-5.3
2023-02-27T05:48:00.927Z,-5.1
2023-02-27T05:50:00.949Z,-5.2
2023-02-27T05:53:00.951Z,-5.1
2023-02-27T05:55:00.926Z,-5.2
2023-02-27T05:56:00.942Z,-5.1
2023-02-27T05:59:00.939Z,-5.2
2023-02-27T06:01:00.966Z,-5
2023-02-27T06:02:00.997Z,-5.1
2023-02-27T06:05:01.166Z,-5.2
2023-02-27T06:06:01.162Z,-5
2023-02-27T06:07:01.311Z,-5.1
2023-02-27T06:11:01.020Z,-5.1
2023-02-27T06:13:01.180Z,-5
2023-02-27T06:16:01.168Z,-4.9
2023-02-27T06:17:01.227Z,-5
2023-02-27T06:19:02.994Z,-4.9
2023-02-27T06:22:01.102Z,-5
2023-02-27T06:24:00.999Z,-4.9
2023-02-27T06:26:01.083Z,-4.8
2023-02-27T06:29:00.950Z,-4.8
2023-02-27T06:31:01.048Z,-4.6
2023-02-27T06:32:01.041Z,-4.7
2023-02-27T06:33:01.022Z,-4.5
2023-02-27T06:37:02.647Z,-4.5
2023-02-27T06:41:00.987Z,-4.6
2023-02-27T06:43:00.993Z,-4.5
2023-02-27T06:44:01.000Z,-4.4
2023-02-27T06:45:01.099Z,-4.5
2023-02-27T06:47:01.320Z,-4.3
2023-02-27T06:50:01.088Z,-4.2
2023-02-27T06:51:01.075Z,-4.1
2023-02-27T06:53:00.964Z,-4.1
2023-02-27T06:58:00.988Z,-3.9
2023-02-27T07:03:01.112Z,-3.8
2023-02-27T07:07:33.543Z,-3.7
2023-02-27T07:09:01.985Z,-3.7
2023-02-27T07:10:00.973Z,-3.5
2023-02-27T07:12:00.959Z,-3.4
2023-02-27T07:14:00.994Z,-3.4
2023-02-27T07:17:00.930Z,-3.3
2023-02-27T07:19:00.967Z,-3.1
2023-02-27T07:23:00.963Z,-3
2023-02-27T07:26:00.959Z,-2.9
2023-02-27T07:30:01.043Z,-2.8
2023-02-27T07:32:01.009Z,-2.6
2023-02-27T07:34:00.962Z,-2.6
2023-02-27T07:36:01.060Z,-2.5
2023-02-27T07:40:00.953Z,-2.6
2023-02-27T07:43:00.941Z,-2.7
2023-02-27T07:44:00.946Z,-2.5
2023-02-27T07:46:00.943Z,-2.5
2023-02-27T07:49:00.966Z,-2.5
2023-02-27T07:50:01.015Z,-2.3
2023-02-27T07:54:01.039Z,-2.1
2023-02-27T07:56:00.951Z,-2
2023-02-27T07:57:00.947Z,-1.9
2023-02-27T07:58:00.948Z,-1.8
2023-02-27T08:00:00.997Z,-1.6
2023-02-27T08:02:00.972Z,-1.4
2023-02-27T08:03:01.026Z,-1.5
2023-02-27T08:04:00.970Z,-1.3
2023-02-27T08:06:02.207Z,-1.1
2023-02-27T08:08:00.969Z,-1
2023-02-27T08:10:01.150Z,-1.1
2023-02-27T08:13:00.948Z,-1.1
2023-02-27T08:17:00.965Z,-1
2023-02-27T08:18:00.972Z,-1.1
2023-02-27T08:20:00.982Z,-1.2
2023-02-27T08:22:00.977Z,-1
2023-02-27T08:23:01.000Z,-1.1
2023-02-27T08:25:00.944Z,-0.9
2023-02-27T08:26:00.943Z,-1
2023-02-27T08:27:00.967Z,-0.9
2023-02-27T08:33:00.969Z,-0.7
2023-02-27T08:34:09.689Z,-0.8
2023-02-27T08:35:01.001Z,-0.6
2023-02-27T08:37:00.951Z,-0.6
2023-02-27T08:38:00.983Z,-0.7
2023-02-27T08:41:01.030Z,-0.6
2023-02-27T08:45:01.019Z,-0.5
2023-02-27T08:46:01.052Z,-0.4
2023-02-27T08:48:01.058Z,-0.5
2023-02-27T08:50:01.002Z,-0.8
2023-02-27T08:51:00.983Z,-0.7
2023-02-27T08:54:01.000Z,-0.8
2023-02-27T08:56:01.019Z,-0.9
2023-02-27T08:59:00.965Z,-0.7
2023-02-27T09:01:01.075Z,-0.8
2023-02-27T09:03:01.077Z,-0.8
2023-02-27T09:07:00.979Z,-0.8
2023-02-27T09:08:00.974Z,-0.6
2023-02-27T09:10:00.977Z,-0.5
2023-02-27T09:11:00.965Z,-0.4
2023-02-27T09:12:01.011Z,-0.3
2023-02-27T09:13:00.997Z,-0.4
2023-02-27T09:14:01.010Z,-0.3
2023-02-27T09:15:01.053Z,-0.4
2023-02-27T09:18:01.013Z,-0.5
2023-02-27T09:21:00.937Z,-0.3
2023-02-27T09:22:00.995Z,-0.4
2023-02-27T09:23:00.995Z,-0.3
2023-02-27T09:25:00.955Z,-0.3
2023-02-27T09:26:00.989Z,-0.2
2023-02-27T09:32:01.145Z,-0.1
2023-02-27T09:45:00.984Z,0.1
2023-02-27T09:46:00.990Z,-0.1
2023-02-27T09:48:00.993Z,0.3
2023-02-27T09:50:00.969Z,0.3
2023-02-27T09:54:00.971Z,0.2
2023-02-27T09:56:00.994Z,0.1
2023-02-27T09:57:00.984Z,0
2023-02-27T09:59:00.952Z,0
2023-02-27T10:00:00.977Z,0.1
2023-02-27T10:01:01.232Z,0
2023-02-27T10:03:00.988Z,0.1
2023-02-27T10:04:01.012Z,0.2
2023-02-27T10:06:00.999Z,0.2
2023-02-27T10:08:00.932Z,0.2
2023-02-27T10:10:00.948Z,0.3
2023-02-27T10:12:01.020Z,0.1
2023-02-27T10:14:00.998Z,0.2
2023-02-27T10:18:05.384Z,0.3
2023-02-27T10:19:00.937Z,0.4
2023-02-27T10:20:00.949Z,0.3
2023-02-27T10:23:00.940Z,0.4
2023-02-27T10:24:00.928Z,0.5
2023-02-27T10:28:00.982Z,0.5
2023-02-27T10:32:01.013Z,0.7
2023-02-27T10:34:00.948Z,0.6
2023-02-27T10:35:00.929Z,0.7
2023-02-27T10:36:03.086Z,0.6
2023-02-27T10:39:00.942Z,0.6
2023-02-27T10:40:00.928Z,0.7
2023-02-27T10:41:00.942Z,0.6
2023-02-27T10:42:00.994Z,0.8
2023-02-27T10:45:00.998Z,1
2023-02-27T10:48:00.936Z,1
2023-02-27T10:49:00.950Z,0.9
2023-02-27T10:51:00.941Z,1
2023-02-27T10:52:00.963Z,0.9
2023-02-27T10:54:00.925Z,1
2023-02-27T10:56:01.065Z,1
2023-02-27T10:58:00.937Z,0.9
2023-02-27T11:00:01.223Z,0.7
2023-02-27T11:04:00.960Z,0.6
2023-02-27T11:07:00.924Z,0.5
2023-02-27T11:08:00.936Z,0.4
2023-02-27T11:09:00.985Z,0.5
2023-02-27T11:10:00.991Z,0.3
2023-02-27T11:12:01.006Z,0.1
2023-02-27T11:14:01.441Z,0.1
2023-02-27T11:15:01.022Z,0.2
2023-02-27T11:17:00.957Z,0.1
2023-02-27T11:19:00.928Z,0
2023-02-27T11:21:00.918Z,-0.1
2023-02-27T11:22:00.965Z,-0.2
2023-02-27T11:24:00.972Z,-0.3
2023-02-27T11:25:02.407Z,-0.1
2023-02-27T11:26:00.987Z,-0.2
2023-02-27T11:27:01.000Z,-0.3
2023-02-27T11:28:00.986Z,-0.1
2023-02-27T11:31:01.168Z,-0.1
2023-02-27T11:36:01.050Z,-0.1
2023-02-27T11:37:00.980Z,-0.3
2023-02-27T11:40:00.981Z,-0.4
2023-02-27T11:44:00.970Z,-0.4
2023-02-27T11:50:00.966Z,-0.5
2023-02-27T11:52:00.989Z,-0.3
2023-02-27T11:53:00.943Z,-0.4
2023-02-27T11:54:00.945Z,-0.5
2023-02-27T11:55:00.997Z,-0.4
2023-02-27T11:57:00.958Z,-0.3
2023-02-27T11:58:01.017Z,-0.2
2023-02-27T12:00:01.001Z,-0.3
2023-02-27T12:01:00.997Z,-0.1
2023-02-27T12:04:00.970Z,0
2023-02-27T12:05:00.938Z,-0.1
2023-02-27T12:06:01.005Z,-0.2
2023-02-27T12:07:01.026Z,-0.1
2023-02-27T12:09:00.925Z,-0.1
2023-02-27T12:10:00.956Z,-0.2
2023-02-27T12:13:00.986Z,-0.1
2023-02-27T12:15:00.995Z,-0.2
2023-02-27T12:16:01.044Z,-0.1
2023-02-27T12:17:00.981Z,-0.2
2023-02-27T12:19:01.005Z,-0.2
2023-02-27T12:21:00.921Z,0
2023-02-27T12:22:00.948Z,-0.1
2023-02-27T12:23:00.965Z,0
2023-02-27T12:25:00.962Z,-0.2
2023-02-27T12:26:00.946Z,0
2023-02-27T12:27:01.000Z,-0.1
2023-02-27T12:30:01.051Z,0
2023-02-27T12:33:00.935Z,0.1
2023-02-27T12:35:00.948Z,0
2023-02-27T12:36:01.043Z,0.2
2023-02-27T12:37:00.994Z,0
2023-02-27T12:38:00.991Z,0.1
2023-02-27T12:40:01.171Z,0
2023-02-27T12:42:00.996Z,0
2023-02-27T12:44:00.947Z,0.2
2023-02-27T12:45:00.966Z,0
2023-02-27T12:46:01.010Z,0.2
2023-02-27T12:48:01.007Z,0.2
2023-02-27T12:50:00.972Z,0.1
2023-02-27T12:51:00.990Z,0
2023-02-27T12:53:00.956Z,0.2
2023-02-27T12:54:00.941Z,0
2023-02-27T12:56:00.946Z,0.1
2023-02-27T12:58:00.965Z,0.1
2023-02-27T12:59:01.037Z,0
2023-02-27T13:01:01.029Z,0.1
2023-02-27T13:02:01.004Z,0
2023-02-27T13:04:01.023Z,0
2023-02-27T13:06:01.005Z,0
2023-02-27T13:07:01.041Z,0.1
2023-02-27T13:10:00.966Z,0
2023-02-27T13:13:01.037Z,0.1
2023-02-27T13:15:01.010Z,0.1
2023-02-27T13:20:01.001Z,-0.1
2023-02-27T13:25:00.942Z,0.1
2023-02-27T13:26:01.007Z,0.2
2023-02-27T13:28:00.993Z,0.2
2023-02-27T13:32:01.102Z,0.2
2023-02-27T13:37:00.945Z,0.3
2023-02-27T13:41:00.985Z,0.4
2023-02-27T13:45:00.966Z,0.5
2023-02-27T13:47:00.977Z,0.4
2023-02-27T13:50:01.034Z,0.5
2023-02-27T13:53:00.960Z,0.3
2023-02-27T13:55:10.163Z,0.4
2023-02-27T13:59:00.941Z,0.3
2023-02-27T14:02:01.039Z,0.2
2023-02-27T14:04:00.952Z,0.2
2023-02-27T14:05:03.053Z,0.3
2023-02-27T14:08:01.013Z,0.2
2023-02-27T14:13:00.941Z,0
2023-02-27T14:15:00.992Z,-0.1
2023-02-27T14:17:00.963Z,-0.1
2023-02-27T14:23:00.958Z,-0.2
2023-02-27T14:24:00.984Z,-0.3
2023-02-27T14:26:00.973Z,-0.2
2023-02-27T14:27:01.010Z,-0.3
2023-02-27T14:31:01.036Z,-0.2
2023-02-27T14:33:00.920Z,-0.1
2023-02-27T14:34:00.942Z,-0.2
2023-02-27T14:38:00.995Z,0
2023-02-27T14:41:01.019Z,0.1
2023-02-27T14:43:01.015Z,0
2023-02-27T14:44:01.021Z,0.1
2023-02-27T14:47:01.051Z,0.2
2023-02-27T14:48:00.968Z,0.1
2023-02-27T14:50:00.935Z,0.3
2023-02-27T14:51:00.925Z,0.2
2023-02-27T14:52:01.013Z,0.3
2023-02-27T14:54:01.012Z,0.4
2023-02-27T14:59:04.831Z,0.3
2023-02-27T15:01:00.999Z,0.4
2023-02-27T15:03:00.943Z,0.2
2023-02-27T15:04:01.019Z,0.3
2023-02-27T15:07:00.968Z,0.5
2023-02-27T15:08:00.963Z,0.2
2023-02-27T15:10:02.650Z,0.3
2023-02-27T15:11:00.972Z,0.2
2023-02-27T15:13:00.953Z,0.1
2023-02-27T15:14:00.988Z,0.2
2023-02-27T15:17:00.990Z,0.3
2023-02-27T15:19:01.038Z,0.2
2023-02-27T15:20:01.138Z,0.3
2023-02-27T15:21:01.145Z,0.4
2023-02-27T15:23:01.130Z,0.4
2023-02-27T15:25:01.001Z,0.5
2023-02-27T15:26:01.180Z,0.6
2023-02-27T15:28:01.002Z,0.5
2023-02-27T15:29:00.991Z,0.6
2023-02-27T15:31:01.026Z,0.5
2023-02-27T15:33:01.032Z,0.6
2023-02-27T15:39:01.172Z,0.5
2023-02-27T15:41:00.988Z,0.5
2023-02-27T15:43:01.126Z,0.4
2023-02-27T15:45:01.136Z,0.3
2023-02-27T15:46:01.146Z,0.2
2023-02-27T15:49:01.016Z,0.2
2023-02-27T15:51:00.941Z,0.1
2023-02-27T15:53:00.998Z,0
2023-02-27T15:58:03.284Z,-0.1
2023-02-27T16:04:00.945Z,-0.2
2023-02-27T16:06:01.018Z,-0.3
2023-02-27T16:08:01.063Z,-0.3
2023-02-27T16:09:01.076Z,-0.4
2023-02-27T16:11:00.955Z,-0.3
2023-02-27T16:13:00.991Z,-0.4
2023-02-27T16:15:01.030Z,-0.5
2023-02-27T16:17:00.953Z,-0.6
2023-02-27T16:19:00.977Z,-0.5
2023-02-27T16:20:01.999Z,-0.4
2023-02-27T16:22:01.032Z,-0.5
2023-02-27T16:23:01.048Z,-0.6
2023-02-27T16:25:00.997Z,-0.5
2023-02-27T16:27:01.015Z,-0.7
2023-02-27T16:31:01.021Z,-0.6
2023-02-27T16:32:01.228Z,-0.7
2023-02-27T16:35:00.965Z,-0.8
2023-02-27T16:37:00.960Z,-0.9
2023-02-27T16:39:00.962Z,-0.8
2023-02-27T16:40:01.010Z,-0.9
2023-02-27T16:42:01.048Z,-1
2023-02-27T16:43:01.064Z,-0.9
2023-02-27T16:46:01.032Z,-0.9
2023-02-27T16:48:01.001Z,-1
2023-02-27T16:51:01.051Z,-1.1
2023-02-27T16:55:00.967Z,-1.2
2023-02-27T16:59:01.013Z,-1.1
2023-02-27T17:00:01.122Z,-1.2
2023-02-27T17:02:00.998Z,-1.2
2023-02-27T17:04:01.065Z,-1.2
2023-02-27T17:05:01.014Z,-1.4
2023-02-27T17:06:00.973Z,-1.3
2023-02-27T17:07:00.971Z,-1.4
2023-02-27T17:09:01.027Z,-1.3
2023-02-27T17:10:01.002Z,-1.5
2023-02-27T17:12:01.006Z,-1.5
2023-02-27T17:14:00.982Z,-1.4
2023-02-27T17:15:01.016Z,-1.5
2023-02-27T17:20:01.130Z,-1.6
2023-02-27T17:23:00.974Z,-1.7
2023-02-27T17:24:01.041Z,-1.6
2023-02-27T17:29:00.939Z,-1.8
2023-02-27T17:34:01.233Z,-1.9
2023-02-27T17:36:01.073Z,-1.9
2023-02-27T17:40:01.014Z,-2.1
2023-02-27T17:42:01.050Z,-2
2023-02-27T17:44:01.135Z,-2.1
2023-02-27T17:46:01.064Z,-2
2023-02-27T17:48:01.029Z,-2.1
2023-02-27T17:50:01.024Z,-2
2023-02-27T17:53:01.000Z,-1.9
2023-02-27T17:54:01.030Z,-2
2023-02-27T17:57:01.032Z,-2
2023-02-27T17:59:01.017Z,-1.9
2023-02-27T18:01:01.031Z,-1.8
2023-02-27T18:05:01.019Z,-1.8
2023-02-27T18:07:00.965Z,-1.8
2023-02-27T18:09:00.930Z,-1.7
2023-02-27T18:10:00.988Z,-1.8
2023-02-27T18:12:01.049Z,-1.9
2023-02-27T18:19:01.041Z,-1.6
2023-02-27T18:21:01.127Z,-1.6
2023-02-27T18:23:01.045Z,-1.8
2023-02-27T18:24:01.015Z,-1.7
2023-02-27T18:26:00.984Z,-1.6
2023-02-27T18:27:00.987Z,-1.5
2023-02-27T18:28:00.991Z,-1.6
2023-02-27T18:29:01.004Z,-1.7
2023-02-27T18:31:01.032Z,-1.5
2023-02-27T18:32:01.008Z,-1.6
2023-02-27T18:33:01.004Z,-1.7
2023-02-27T18:34:01.174Z,-1.5
2023-02-27T18:37:01.008Z,-1.7
2023-02-27T18:38:01.055Z,-1.8
2023-02-27T18:43:01.050Z,-1.6
2023-02-27T18:44:01.040Z,-1.8
2023-02-27T18:45:01.258Z,-1.7
2023-02-27T18:47:00.972Z,-1.7
2023-02-27T18:48:01.046Z,-1.8
2023-02-27T18:50:00.977Z,-1.9
2023-02-27T18:51:01.105Z,-1.8
2023-02-27T18:53:00.972Z,-1.9
2023-02-27T18:55:01.061Z,-1.8
2023-02-27T18:56:01.210Z,-2
2023-02-27T19:00:01.066Z,-2
2023-02-27T19:02:00.995Z,-2
2023-02-27T19:03:01.082Z,-1.9
2023-02-27T19:04:01.066Z,-2
2023-02-27T19:06:01.020Z,-2.1
2023-02-27T19:07:01.001Z,-2
2023-02-27T19:08:00.965Z,-2.1
2023-02-27T19:13:00.984Z,-2.2
2023-02-27T19:15:01.144Z,-2.3
2023-02-27T19:19:00.972Z,-2.4
2023-02-27T19:20:01.076Z,-2.3
2023-02-27T19:22:00.995Z,-2.6
2023-02-27T19:24:01.083Z,-2.5
2023-02-27T19:27:00.934Z,-2.7
2023-02-27T19:28:00.937Z,-2.5
2023-02-27T19:30:01.066Z,-2.7
2023-02-27T19:31:01.120Z,-2.6
2023-02-27T19:33:00.934Z,-2.7
2023-02-27T19:35:01.060Z,-2.8
2023-02-27T19:37:01.013Z,-2.9
2023-02-27T19:40:00.996Z,-2.8
2023-02-27T19:42:00.997Z,-3.1
2023-02-27T19:45:00.991Z,-3
2023-02-27T19:49:00.943Z,-3.2
2023-02-27T19:50:00.983Z,-3.1
2023-02-27T19:53:00.955Z,-3.1
2023-02-27T19:55:01.120Z,-3.3
2023-02-27T19:57:01.070Z,-3.2
2023-02-27T20:00:00.952Z,-3.1
2023-02-27T20:04:01.026Z,-3.3
2023-02-27T20:05:00.991Z,-3.1
2023-02-27T20:07:00.986Z,-3.1
2023-02-27T20:09:00.918Z,-3.2
2023-02-27T20:11:00.939Z,-3.1
2023-02-27T20:12:00.932Z,-3.2
2023-02-27T20:14:01.001Z,-3.3
2023-02-27T20:16:01.005Z,-3.4
2023-02-27T20:17:00.972Z,-3.2
2023-02-27T20:18:01.092Z,-3.5
2023-02-27T20:20:01.057Z,-3.4
2023-02-27T20:21:01.080Z,-3.3
2023-02-27T20:23:00.987Z,-3.4
2023-02-27T20:25:00.953Z,-3.5
2023-02-27T20:30:01.183Z,-3.4
2023-02-27T20:32:01.295Z,-3.4
2023-02-27T20:33:00.986Z,-3.6
2023-02-27T20:35:00.983Z,-3.6
2023-02-27T20:39:01.007Z,-3.6
2023-02-27T20:42:00.976Z,-3.5
2023-02-27T20:44:00.963Z,-3.6
2023-02-27T20:45:00.950Z,-3.5
2023-02-27T20:46:00.986Z,-3.6
2023-02-27T20:47:00.958Z,-3.5
2023-02-27T20:48:00.992Z,-3.4
2023-02-27T20:50:01.008Z,-3.6
2023-02-27T20:56:00.972Z,-3.4
2023-02-27T20:58:00.969Z,-3.4
2023-02-27T20:59:00.981Z,-3.3
2023-02-27T21:00:01.203Z,-3.4
2023-02-27T21:03:01.030Z,-3.3
2023-02-27T21:04:01.209Z,-3.4
2023-02-27T21:06:01.111Z,-3.3
2023-02-27T21:09:01.019Z,-3.2
2023-02-27T21:10:01.041Z,-3.4
2023-02-27T21:13:01.067Z,-3.3
2023-02-27T21:15:01.187Z,-3.2
2023-02-27T21:17:01.193Z,-3.3
2023-02-27T21:18:01.179Z,-3.4
2023-02-27T21:22:01.102Z,-3.3
2023-02-27T21:25:01.042Z,-3.3
2023-02-27T21:27:00.995Z,-3.4
2023-02-27T21:28:00.976Z,-3.5
2023-02-27T21:29:01.003Z,-3.4
2023-02-27T21:31:01.019Z,-3.5
2023-02-27T21:33:03.374Z,-3.5
2023-02-27T21:34:01.022Z,-3.4
2023-02-27T21:36:01.040Z,-3.3
2023-02-27T21:37:01.109Z,-3.4
2023-02-27T21:39:01.007Z,-3.4
2023-02-27T21:42:01.120Z,-3.5
2023-02-27T21:43:01.111Z,-3.4
2023-02-27T21:46:01.204Z,-3.3
2023-02-27T21:48:01.008Z,-3.5
2023-02-27T21:51:00.950Z,-3.3
2023-02-27T21:52:00.959Z,-3.4
2023-02-27T21:55:00.939Z,-3.2
2023-02-27T21:56:00.974Z,-3.3
2023-02-27T22:00:01.098Z,-3.4
2023-02-27T22:02:01.013Z,-3.2
2023-02-27T22:03:01.140Z,-3.3
2023-02-27T22:05:01.049Z,-3.3
2023-02-27T22:07:01.050Z,-3.2
2023-02-27T22:09:01.115Z,-3.2
2023-02-27T22:12:01.037Z,-3.3
2023-02-27T22:15:01.070Z,-3.1
2023-02-27T22:17:01.080Z,-3.2
2023-02-27T22:19:01.096Z,-3.3
2023-02-27T22:23:00.980Z,-3.1
2023-02-27T22:24:00.948Z,-3.2
2023-02-27T22:25:00.977Z,-3.3
2023-02-27T22:27:00.947Z,-3.4
2023-02-27T22:28:00.967Z,-3.3
2023-02-27T22:31:01.024Z,-3.4
2023-02-27T22:35:00.968Z,-3.4
2023-02-27T22:41:01.048Z,-3.5
2023-02-27T22:42:01.042Z,-3.4
2023-02-27T22:44:01.137Z,-3.4
2023-02-27T22:48:01.222Z,-3.2
2023-02-27T22:50:01.067Z,-3.4
2023-02-27T22:54:01.019Z,-3.3
2023-02-27T22:56:00.946Z,-3.4
2023-02-27T22:59:00.989Z,-3.3
2023-02-27T23:04:01.096Z,-3.4
2023-02-27T23:06:00.959Z,-3.2
2023-02-27T23:07:01.133Z,-3.1
2023-02-27T23:09:01.016Z,-3.3
2023-02-27T23:10:01.024Z,-3.2
2023-02-27T23:12:01.057Z,-3.4
2023-02-27T23:14:00.983Z,-3.2
2023-02-27T23:15:01.031Z,-3.3
2023-02-27T23:20:00.987Z,-3.2
2023-02-27T23:22:00.956Z,-3.4
2023-02-27T23:23:01.035Z,-3.3
2023-02-27T23:26:01.773Z,-3.3
2023-02-27T23:27:00.988Z,-3.1
2023-02-27T23:30:01.073Z,-3.3
2023-02-27T23:32:01.002Z,-3.2
2023-02-27T23:34:01.048Z,-3.1
2023-02-27T23:36:01.046Z,-3.1
2023-02-27T23:39:00.969Z,-3.3
2023-02-27T23:40:01.036Z,-3.2
2023-02-27T23:42:00.998Z,-3.1
2023-02-27T23:44:00.985Z,-3
2023-02-27T23:45:01.003Z,-3.1
2023-02-27T23:47:00.974Z,-3.1
2023-02-27T23:52:01.011Z,-3
2023-02-27T23:53:01.129Z,-3.1
2023-02-27T23:55:01.073Z,-2.9
2023-02-27T23:57:01.030Z,-3
